Time;durP1;ratioP1;P1;durP2;ratioP2;P2;SDS_P1;SDS_P2;PMS_P1;PMS_P2;Temp;Humidity;BMP_temperature;BMP_pressure;BME280_temperature;BME280_humidity;BME280_pressure;Samples;Min_cycle;Max_cycle;Signal;HPM_P1;HPM_P2
2022/02/26 00:00:42;;;;;;;36.05;22.40;;;4.40;67.90;;;;;;5072962;28;20029;-61
2022/02/26 00:03:08;;;;;;;33.15;21.80;;;4.40;68.40;;;;;;5073143;28;20086;-61
2022/02/26 00:05:33;;;;;;;30.17;19.25;;;4.40;68.60;;;;;;5072525;28;20028;-61
2022/02/26 00:07:59;;;;;;;29.25;21.38;;;4.40;68.50;;;;;;5079550;28;20028;-61
2022/02/26 00:10:25;;;;;;;25.98;17.50;;;4.50;68.40;;;;;;5088671;28;20139;-61
2022/02/26 00:12:52;;;;;;;24.77;16.85;;;4.50;68.40;;;;;;5073937;28;20056;-61
2022/02/26 00:15:19;;;;;;;23.88;16.30;;;4.40;68.30;;;;;;5092918;28;20442;-61
2022/02/26 00:17:46;;;;;;;26.83;19.17;;;4.50;68.40;;;;;;5091029;28;20089;-61
2022/02/26 00:20:12;;;;;;;24.73;14.95;;;4.40;68.50;;;;;;5083155;28;20029;-61
2022/02/26 00:22:38;;;;;;;23.02;15.25;;;4.40;68.50;;;;;;5077796;28;20031;-61
2022/02/26 00:25:04;;;;;;;24.80;18.92;;;4.40;68.60;;;;;;5072392;28;20119;-61
2022/02/26 00:27:30;;;;;;;27.02;16.00;;;4.40;68.70;;;;;;5072617;28;20384;-61
2022/02/26 00:29:56;;;;;;;24.92;16.45;;;4.30;68.80;;;;;;5072177;28;20031;-61
2022/02/26 00:32:22;;;;;;;24.50;16.90;;;4.40;69.30;;;;;;5077361;28;20546;-61
2022/02/26 00:34:48;;;;;;;24.17;14.50;;;4.30;69.50;;;;;;5092030;28;20079;-61
2022/02/26 00:37:14;;;;;;;22.38;16.00;;;4.30;69.70;;;;;;5085548;28;20392;-61
2022/02/26 00:39:40;;;;;;;24.20;19.90;;;4.30;70.00;;;;;;5072142;28;20176;-61
2022/02/26 00:42:06;;;;;;;23.23;16.35;;;4.40;70.30;;;;;;5076919;28;20062;-61
2022/02/26 00:44:34;;;;;;;24.92;16.48;;;4.30;70.20;;;;;;5091699;28;20051;-61
2022/02/26 00:47:00;;;;;;;27.83;17.52;;;4.30;70.30;;;;;;5090063;28;20036;-61
2022/02/26 00:52:11;;;;;;;27.63;16.45;;;4.30;70.30;;;;;;5090532;28;20089;-61
2022/02/26 00:54:37;;;;;;;28.02;21.77;;;4.30;70.50;;;;;;5073081;28;20108;-61
2022/02/26 00:57:03;;;;;;;25.67;15.90;;;4.30;70.80;;;;;;5071955;28;20052;-61
2022/02/26 00:59:28;;;;;;;43.63;29.58;;;4.30;70.80;;;;;;5071812;28;20053;-61
2022/02/26 01:01:54;;;;;;;32.67;20.00;;;4.30;71.10;;;;;;5072019;28;20094;-61
2022/02/26 01:04:21;;;;;;;33.60;20.02;;;4.20;71.00;;;;;;5071862;28;20025;-61
2022/02/26 01:06:47;;;;;;;34.25;18.08;;;4.10;70.80;;;;;;5072185;28;20520;-61
2022/02/26 01:09:12;;;;;;;50.60;17.10;;;3.90;71.30;;;;;;5084329;28;20115;-61
2022/02/26 01:11:38;;;;;;;49.92;15.80;;;3.80;71.70;;;;;;5073730;28;20036;-61
2022/02/26 01:14:04;;;;;;;39.92;14.38;;;3.60;72.50;;;;;;5087722;28;20035;-61
2022/02/26 01:16:30;;;;;;;56.53;18.60;;;3.50;72.80;;;;;;5089361;28;20115;-61
2022/02/26 01:18:56;;;;;;;43.45;13.25;;;3.40;73.40;;;;;;5094644;28;20031;-61
2022/02/26 01:21:22;;;;;;;45.20;14.40;;;3.30;73.70;;;;;;5095689;28;20079;-61
2022/02/26 01:23:51;;;;;;;37.38;13.27;;;3.30;74.00;;;;;;5095847;28;20026;-61
2022/02/26 01:26:18;;;;;;;40.63;13.63;;;3.20;74.30;;;;;;5095639;28;20080;-61
2022/02/26 01:28:44;;;;;;;31.70;12.65;;;3.20;74.40;;;;;;5095041;28;20472;-61
2022/02/26 01:31:10;;;;;;;40.15;14.20;;;3.20;74.70;;;;;;5077207;28;20035;-61
2022/02/26 01:33:36;;;;;;;38.17;14.90;;;3.10;74.80;;;;;;5091145;28;20024;-61
2022/02/26 01:36:02;;;;;;;45.97;12.65;;;3.10;75.00;;;;;;5095372;28;20095;-61
2022/02/26 01:38:28;;;;;;;42.92;12.50;;;3.20;75.20;;;;;;5095110;28;20464;-61
2022/02/26 01:40:53;;;;;;;40.88;11.93;;;3.20;75.30;;;;;;5093607;28;20202;-61
2022/02/26 01:43:19;;;;;;;43.05;13.13;;;3.20;75.30;;;;;;5095279;28;20060;-61
2022/02/26 01:45:45;;;;;;;38.30;13.00;;;3.10;75.30;;;;;;5084069;28;20035;-61
2022/02/26 01:48:11;;;;;;;42.78;12.77;;;3.10;75.60;;;;;;5082151;28;20040;-61
2022/02/26 01:50:36;;;;;;;49.80;12.52;;;3.10;75.70;;;;;;5092939;28;20028;-61
2022/02/26 01:53:04;;;;;;;49.15;12.50;;;3.20;75.80;;;;;;5075190;28;20024;-61
2022/02/26 01:55:31;;;;;;;43.15;13.40;;;3.20;75.80;;;;;;5090804;28;20116;-63
2022/02/26 01:57:57;;;;;;;38.30;11.48;;;3.20;75.80;;;;;;5085672;28;20099;-61
2022/02/26 02:00:23;;;;;;;65.97;15.50;;;3.20;75.80;;;;;;5074876;28;20631;-61
2022/02/26 02:02:49;;;;;;;42.72;12.27;;;3.20;75.70;;;;;;5076904;28;20063;-61
2022/02/26 02:05:15;;;;;;;43.78;12.07;;;3.20;75.80;;;;;;5095235;28;20051;-61
2022/02/26 02:08:24;;;;;;;40.03;11.52;;;3.10;75.80;;;;;;5095169;28;20433;-61
2022/02/26 02:10:51;;;;;;;99.40;18.70;;;3.10;75.70;;;;;;5082953;28;20068;-61
2022/02/26 02:13:18;;;;;;;55.55;14.68;;;3.10;75.90;;;;;;5083782;28;20025;-61
2022/02/26 02:15:43;;;;;;;91.90;17.15;;;3.20;76.20;;;;;;5094715;28;20387;-61
2022/02/26 02:18:11;;;;;;;115.88;19.52;;;3.20;76.40;;;;;;5094739;28;20099;-61
2022/02/26 02:20:38;;;;;;;61.35;16.13;;;3.20;76.40;;;;;;5075682;28;20457;-61
2022/02/26 02:23:04;;;;;;;54.50;16.67;;;3.30;76.50;;;;;;5074538;28;20025;-61
2022/02/26 02:25:34;;;;;;;38.78;15.32;;;3.30;76.50;;;;;;5080325;28;20114;-61
2022/02/26 02:28:01;;;;;;;33.38;14.88;;;3.30;76.50;;;;;;5094635;28;20024;-61
2022/02/26 02:30:27;;;;;;;28.45;13.73;;;3.30;76.40;;;;;;5094301;28;20434;-61
2022/02/26 02:32:55;;;;;;;30.85;15.07;;;3.30;76.40;;;;;;5085941;28;20016;-61
2022/02/26 02:35:33;;;;;;;45.88;15.25;;;3.30;76.70;;;;;;5073846;28;20041;-61
2022/02/26 02:38:02;;;;;;;31.83;11.68;;;3.30;76.60;;;;;;5078403;28;20048;-61
2022/02/26 02:40:28;;;;;;;26.65;13.35;;;3.20;76.60;;;;;;5083281;28;20025;-61
2022/02/26 02:42:54;;;;;;;35.15;15.93;;;3.20;76.60;;;;;;5077010;28;20036;-61
2022/02/26 02:45:21;;;;;;;44.05;13.85;;;3.20;76.80;;;;;;5081828;28;20031;-61
2022/02/26 02:47:47;;;;;;;46.67;15.00;;;3.20;76.80;;;;;;5075914;28;20030;-61
2022/02/26 02:50:13;;;;;;;29.85;13.80;;;3.20;77.50;;;;;;5083282;28;20491;-61
2022/02/26 02:52:39;;;;;;;23.95;11.95;;;3.20;76.90;;;;;;5074571;28;20024;-61
2022/02/26 02:55:06;;;;;;;33.67;11.25;;;3.20;77.00;;;;;;5073876;28;20033;-61
2022/02/26 02:57:32;;;;;;;58.67;12.82;;;3.20;77.10;;;;;;5084574;28;20029;-61
2022/02/26 02:59:57;;;;;;;50.30;16.42;;;3.30;77.10;;;;;;5087120;28;20038;-61
2022/02/26 03:02:23;;;;;;;45.28;12.57;;;3.30;77.30;;;;;;5092767;28;20028;-61
2022/02/26 03:04:49;;;;;;;36.58;12.43;;;3.30;77.10;;;;;;5080436;28;20032;-61
2022/02/26 03:07:16;;;;;;;52.35;13.10;;;3.30;77.10;;;;;;5084513;28;20103;-61
2022/02/26 03:09:42;;;;;;;24.33;9.13;;;3.40;77.20;;;;;;5081537;28;20443;-61
2022/02/26 03:12:08;;;;;;;16.02;8.27;;;3.40;77.10;;;;;;5073405;28;20036;-61
2022/02/26 03:14:34;;;;;;;50.13;10.65;;;3.40;76.90;;;;;;5073389;28;20025;-61
2022/02/26 03:16:59;;;;;;;54.35;13.10;;;3.40;76.90;;;;;;5076955;28;20428;-61
2022/02/26 03:19:25;;;;;;;20.10;7.68;;;3.40;77.10;;;;;;5085824;28;20024;-61
2022/02/26 03:21:51;;;;;;;37.45;8.75;;;3.50;77.10;;;;;;5090626;28;20095;-61
2022/02/26 03:24:17;;;;;;;20.00;8.23;;;3.40;77.00;;;;;;5080642;28;20025;-61
2022/02/26 03:26:42;;;;;;;21.42;8.52;;;3.40;77.00;;;;;;5086871;28;20043;-61
2022/02/26 03:29:09;;;;;;;68.65;11.15;;;3.40;77.10;;;;;;5073221;28;20479;-61
2022/02/26 03:31:36;;;;;;;20.88;7.75;;;3.40;77.10;;;;;;5073296;28;20476;-61
2022/02/26 03:34:02;;;;;;;49.13;11.65;;;3.40;77.10;;;;;;5072773;28;20029;-61
2022/02/26 03:36:32;;;;;;;27.05;8.65;;;3.40;77.10;;;;;;5076322;28;20483;-61
2022/02/26 03:38:58;;;;;;;19.35;8.35;;;3.40;77.10;;;;;;5092948;28;20020;-61
2022/02/26 03:41:23;;;;;;;20.40;7.82;;;3.40;77.80;;;;;;5091368;28;20395;-61
2022/02/26 03:43:49;;;;;;;21.58;8.52;;;3.40;77.10;;;;;;5085788;28;20154;-61
2022/02/26 03:46:15;;;;;;;16.70;7.30;;;3.40;77.10;;;;;;5073455;28;20376;-61
2022/02/26 03:48:41;;;;;;;16.23;8.02;;;3.40;77.20;;;;;;5072794;28;20020;-61
2022/02/26 03:51:06;;;;;;;17.30;8.45;;;3.40;77.30;;;;;;5072488;28;20036;-61
2022/02/26 03:53:33;;;;;;;20.95;9.38;;;3.40;77.40;;;;;;5073040;28;20029;-61
2022/02/26 03:55:59;;;;;;;46.33;10.52;;;3.40;77.40;;;;;;5086706;28;20533;-61
2022/02/26 03:58:25;;;;;;;19.80;8.27;;;3.40;77.50;;;;;;5085867;28;20528;-61
2022/02/26 04:00:51;;;;;;;28.58;9.98;;;3.40;77.50;;;;;;5073255;28;20048;-61
2022/02/26 04:03:16;;;;;;;15.65;8.60;;;3.50;77.60;;;;;;5081812;28;20361;-61
2022/02/26 04:05:42;;;;;;;43.45;10.73;;;3.50;78.20;;;;;;5092576;28;20052;-61
2022/02/26 04:08:08;;;;;;;39.30;11.63;;;3.50;77.60;;;;;;5089698;28;20028;-61
2022/02/26 04:10:34;;;;;;;50.35;12.48;;;3.50;77.50;;;;;;5092741;28;20024;-61
2022/02/26 04:12:59;;;;;;;23.88;10.20;;;3.50;77.50;;;;;;5091811;28;20073;-61
2022/02/26 04:15:25;;;;;;;50.65;11.05;;;3.50;77.30;;;;;;5080010;28;20044;-61
2022/02/26 04:17:51;;;;;;;32.15;10.05;;;3.50;77.40;;;;;;5082866;28;20099;-61
2022/02/26 04:20:16;;;;;;;67.45;14.25;;;3.50;77.30;;;;;;5074115;28;20047;-61
2022/02/26 04:22:42;;;;;;;51.15;12.50;;;3.60;77.50;;;;;;5074139;28;20032;-61
2022/02/26 04:25:08;;;;;;;39.40;10.90;;;3.60;77.50;;;;;;5075863;28;20107;-61
2022/02/26 04:27:34;;;;;;;28.05;9.93;;;3.60;77.40;;;;;;5084849;28;20032;-61
2022/02/26 04:30:01;;;;;;;24.65;9.27;;;3.60;77.30;;;;;;5086725;28;20036;-61
2022/02/26 04:32:27;;;;;;;55.60;15.23;;;3.60;77.30;;;;;;5072187;28;20032;-61
2022/02/26 04:34:52;;;;;;;21.67;9.80;;;3.70;77.40;;;;;;5075329;28;20052;-61
2022/02/26 04:37:20;;;;;;;19.38;10.00;;;3.60;77.20;;;;;;5081251;28;20028;-61
2022/02/26 04:39:47;;;;;;;29.25;10.88;;;3.60;77.20;;;;;;5072388;28;20025;-61
2022/02/26 04:42:13;;;;;;;43.85;11.77;;;3.60;77.20;;;;;;5076322;28;20040;-61
2022/02/26 04:44:38;;;;;;;42.35;11.40;;;3.50;77.20;;;;;;5075049;28;20530;-61
2022/02/26 04:47:04;;;;;;;46.53;13.05;;;3.60;77.30;;;;;;5084744;28;20503;-61
2022/02/26 04:49:30;;;;;;;46.75;15.07;;;3.50;77.20;;;;;;5074955;28;20028;-61
2022/02/26 04:51:56;;;;;;;36.50;13.52;;;3.60;77.20;;;;;;5076703;28;20435;-61
2022/02/26 04:54:21;;;;;;;36.20;12.57;;;3.60;77.00;;;;;;5076132;28;20044;-61
2022/02/26 04:56:47;;;;;;;21.13;11.77;;;3.60;77.00;;;;;;5088966;28;20384;-61
2022/02/26 04:59:13;;;;;;;37.92;12.25;;;3.60;76.90;;;;;;5082637;28;20028;-61
2022/02/26 05:01:38;;;;;;;15.52;10.68;;;3.60;76.80;;;;;;5096454;28;20459;-61
2022/02/26 05:04:04;;;;;;;25.58;10.65;;;3.50;76.70;;;;;;5089732;28;20111;-61
2022/02/26 05:06:29;;;;;;;28.88;12.27;;;3.50;76.60;;;;;;5076246;28;20114;-61
2022/02/26 05:08:55;;;;;;;42.38;12.82;;;3.50;76.70;;;;;;5076531;28;20035;-61
2022/02/26 05:11:21;;;;;;;26.38;12.27;;;3.40;76.50;;;;;;5084272;28;20043;-61
2022/02/26 05:13:46;;;;;;;19.63;11.60;;;3.40;76.60;;;;;;5093046;28;20069;-61
2022/02/26 05:16:12;;;;;;;18.20;10.68;;;3.40;76.70;;;;;;5092822;28;20035;-61
2022/02/26 05:18:38;;;;;;;18.60;11.32;;;3.40;76.60;;;;;;5086125;28;20402;-61
2022/02/26 05:21:05;;;;;;;22.65;12.05;;;3.40;76.60;;;;;;5093258;28;20029;-61
2022/02/26 05:23:30;;;;;;;21.60;10.55;;;3.40;76.50;;;;;;5097396;28;20435;-61
2022/02/26 05:25:56;;;;;;;18.27;9.73;;;3.40;76.50;;;;;;5094750;28;20028;-61
2022/02/26 05:28:22;;;;;;;24.60;9.23;;;3.50;76.60;;;;;;5102622;28;20031;-61
2022/02/26 05:30:47;;;;;;;30.38;10.27;;;3.50;76.20;;;;;;5091796;28;20020;-61
2022/02/26 05:33:13;;;;;;;24.80;9.27;;;3.40;75.90;;;;;;5094104;28;20138;-61
2022/02/26 05:35:39;;;;;;;17.70;10.00;;;3.40;76.60;;;;;;5076785;28;20032;-61
2022/02/26 05:38:04;;;;;;;25.23;12.70;;;3.40;76.10;;;;;;5096160;28;20470;-61
2022/02/26 05:40:30;;;;;;;25.35;10.93;;;3.50;76.20;;;;;;5080537;28;20499;-61
2022/02/26 05:42:56;;;;;;;13.20;9.52;;;3.50;76.10;;;;;;5093794;28;20124;-61
2022/02/26 05:45:22;;;;;;;16.38;10.65;;;3.50;76.10;;;;;;5090418;28;20032;-61
2022/02/26 05:47:47;;;;;;;15.95;10.95;;;3.60;76.20;;;;;;5090590;28;20048;-61
2022/02/26 05:50:13;;;;;;;15.45;11.60;;;3.60;76.10;;;;;;5076957;28;20101;-61
2022/02/26 05:52:40;;;;;;;18.33;13.38;;;3.60;76.20;;;;;;5094886;28;20020;-61
2022/02/26 05:55:06;;;;;;;18.60;11.65;;;3.70;76.40;;;;;;5093904;28;20162;-61
2022/02/26 05:57:32;;;;;;;15.38;11.77;;;3.70;76.50;;;;;;5095431;28;20052;-61
2022/02/26 05:59:58;;;;;;;17.38;12.27;;;3.80;76.60;;;;;;5089788;28;20103;-61
2022/02/26 06:02:23;;;;;;;19.50;13.95;;;3.80;76.50;;;;;;5090034;28;20113;-61
2022/02/26 06:04:49;;;;;;;21.15;15.75;;;3.90;76.50;;;;;;5097413;28;20036;-61
2022/02/26 06:07:15;;;;;;;20.77;15.32;;;4.00;76.60;;;;;;5096628;28;20024;-61
2022/02/26 06:09:41;;;;;;;23.13;18.67;;;4.10;76.30;;;;;;5089563;28;20028;-61
2022/02/26 06:12:07;;;;;;;25.45;15.30;;;4.20;76.30;;;;;;5090001;28;20028;-61
2022/02/26 06:14:33;;;;;;;23.13;14.48;;;4.30;76.30;;;;;;5081743;28;20028;-61
2022/02/26 06:16:58;;;;;;;24.17;17.10;;;4.40;77.20;;;;;;5090195;28;20074;-61
2022/02/26 06:19:24;;;;;;;21.55;16.10;;;4.60;76.90;;;;;;5094564;28;20052;-61
2022/02/26 06:21:50;;;;;;;19.92;15.75;;;4.70;76.80;;;;;;5083858;28;20032;-61
2022/02/26 06:24:16;;;;;;;20.67;16.45;;;4.90;76.90;;;;;;5074802;28;20021;-61
2022/02/26 06:26:42;;;;;;;24.38;17.08;;;5.10;76.80;;;;;;5090865;28;20028;-61
2022/02/26 06:29:08;;;;;;;21.52;16.33;;;5.30;76.50;;;;;;5094596;28;20490;-61
2022/02/26 06:31:34;;;;;;;26.45;18.48;;;5.50;76.10;;;;;;5094051;28;20134;-61
2022/02/26 06:33:59;;;;;;;24.52;17.85;;;5.70;75.50;;;;;;5077451;28;20025;-61
2022/02/26 06:36:25;;;;;;;24.00;17.10;;;5.70;74.90;;;;;;5074218;28;20031;-61
2022/02/26 06:38:51;;;;;;;23.70;17.50;;;5.80;74.60;;;;;;5075918;28;20031;-61
2022/02/26 06:41:16;;;;;;;20.20;15.77;;;5.80;74.40;;;;;;5084760;28;20044;-61
2022/02/26 06:43:42;;;;;;;20.25;16.67;;;5.80;74.10;;;;;;5076720;28;20040;-61
2022/02/26 06:46:08;;;;;;;22.92;17.75;;;5.80;74.20;;;;;;5074325;28;20078;-61
2022/02/26 06:48:34;;;;;;;21.23;17.00;;;5.70;74.20;;;;;;5074239;28;20032;-61
2022/02/26 06:51:00;;;;;;;22.02;17.05;;;5.70;74.30;;;;;;5085600;28;20500;-61
2022/02/26 06:53:26;;;;;;;22.27;17.48;;;5.70;74.50;;;;;;5074164;28;20028;-61
2022/02/26 06:55:52;;;;;;;23.15;16.92;;;5.70;74.50;;;;;;5074011;28;20541;-61
2022/02/26 06:58:17;;;;;;;21.05;16.58;;;5.60;74.50;;;;;;5090286;28;20459;-61
2022/02/26 07:00:43;;;;;;;18.95;14.82;;;5.60;74.60;;;;;;5089660;28;20456;-61
2022/02/26 07:03:08;;;;;;;19.25;15.23;;;5.60;74.70;;;;;;5074120;28;20029;-61
2022/02/26 07:05:34;;;;;;;20.00;15.27;;;5.60;74.80;;;;;;5073834;28;20476;-63
2022/02/26 07:08:00;;;;;;;18.50;15.60;;;5.60;74.90;;;;;;5076372;28;20028;-61
2022/02/26 07:10:26;;;;;;;18.23;14.70;;;5.60;75.00;;;;;;5073894;28;20060;-61
2022/02/26 07:12:52;;;;;;;21.52;15.05;;;5.60;74.90;;;;;;5060179;28;20036;-60
2022/02/26 07:15:18;;;;;;;18.95;15.98;;;5.60;75.20;;;;;;5073672;28;20021;-60
2022/02/26 07:17:44;;;;;;;21.58;15.65;;;5.50;75.30;;;;;;5079193;28;20098;-60
2022/02/26 07:20:10;;;;;;;21.00;15.48;;;5.50;75.50;;;;;;5079195;28;20477;-60
2022/02/26 07:22:36;;;;;;;21.08;15.50;;;5.50;75.60;;;;;;5089127;28;20050;-60
2022/02/26 07:25:02;;;;;;;21.40;15.77;;;5.50;75.60;;;;;;5082388;28;20025;-60
2022/02/26 07:27:27;;;;;;;20.35;15.50;;;5.50;75.90;;;;;;5093149;28;20119;-60
2022/02/26 07:29:53;;;;;;;18.35;14.32;;;5.50;76.10;;;;;;5080072;28;20025;-60
2022/02/26 07:32:18;;;;;;;20.73;16.05;;;5.60;76.20;;;;;;5073142;28;20059;-60
2022/02/26 07:34:44;;;;;;;19.17;14.85;;;5.60;76.40;;;;;;5073074;28;20029;-60
2022/02/26 07:37:10;;;;;;;18.98;14.57;;;5.60;76.40;;;;;;5073226;28;20039;-60
2022/02/26 07:39:36;;;;;;;16.15;13.77;;;5.60;76.50;;;;;;5073304;28;20032;-60
2022/02/26 07:42:02;;;;;;;18.05;13.32;;;5.70;76.50;;;;;;5079240;28;20028;-62
2022/02/26 07:44:28;;;;;;;17.42;14.52;;;5.70;76.60;;;;;;5079255;28;20100;-61
2022/02/26 07:46:54;;;;;;;16.02;13.32;;;5.70;76.70;;;;;;5088057;28;20162;-60
2022/02/26 07:49:19;;;;;;;17.63;13.90;;;5.70;76.70;;;;;;5079921;28;20024;-60
2022/02/26 07:51:45;;;;;;;16.35;12.85;;;5.80;76.80;;;;;;5072663;28;20041;-60
2022/02/26 07:54:11;;;;;;;16.40;12.88;;;5.80;76.70;;;;;;5073009;28;20017;-60
2022/02/26 07:56:36;;;;;;;17.00;13.55;;;5.80;76.70;;;;;;5081790;28;20077;-60
2022/02/26 07:59:02;;;;;;;17.00;12.80;;;5.80;76.70;;;;;;5087621;28;20040;-60
2022/02/26 08:01:28;;;;;;;18.52;13.63;;;5.90;76.80;;;;;;5077508;28;20016;-63
2022/02/26 08:03:53;;;;;;;15.10;12.77;;;5.90;76.80;;;;;;5081045;28;20515;-61
2022/02/26 08:06:19;;;;;;;18.17;13.80;;;6.00;76.90;;;;;;5086217;28;20115;-61
2022/02/26 08:08:46;;;;;;;17.08;13.07;;;6.00;76.90;;;;;;5073057;28;20043;-61
2022/02/26 08:11:12;;;;;;;16.23;12.52;;;6.00;76.80;;;;;;5072600;28;20036;-61
2022/02/26 08:13:38;;;;;;;14.55;12.52;;;6.00;76.80;;;;;;5075401;28;20065;-60
2022/02/26 08:16:03;;;;;;;16.38;13.02;;;6.10;76.90;;;;;;5079924;28;20028;-60
2022/02/26 08:18:29;;;;;;;14.02;11.95;;;6.10;76.80;;;;;;5072823;28;20025;-60
2022/02/26 08:20:57;;;;;;;12.63;11.13;;;6.10;76.80;;;;;;5074043;28;20481;-60
2022/02/26 08:23:22;;;;;;;14.90;12.07;;;6.10;76.70;;;;;;5092380;28;20067;-62
2022/02/26 08:25:48;;;;;;;13.10;11.20;;;6.10;76.80;;;;;;5085489;28;20024;-61
2022/02/26 08:28:14;;;;;;;13.15;10.90;;;6.10;76.70;;;;;;5088792;28;20028;-60
2022/02/26 08:30:39;;;;;;;11.50;9.60;;;6.10;76.70;;;;;;5074794;28;20032;-63
2022/02/26 08:33:05;;;;;;;14.55;11.40;;;6.10;76.90;;;;;;5073053;28;20024;-62
2022/02/26 08:35:31;;;;;;;12.80;10.75;;;6.10;76.70;;;;;;5072674;28;20044;-61
2022/02/26 08:37:57;;;;;;;14.35;10.77;;;6.10;76.80;;;;;;5072939;28;20021;-60
2022/02/26 08:40:22;;;;;;;12.43;9.73;;;6.20;76.70;;;;;;5087051;28;20078;-60
2022/02/26 08:42:48;;;;;;;11.88;9.88;;;6.10;76.70;;;;;;5078271;28;20047;-60
2022/02/26 08:45:14;;;;;;;13.00;10.02;;;6.20;76.80;;;;;;5074620;28;20108;-60
2022/02/26 08:47:40;;;;;;;11.90;9.82;;;6.20;76.80;;;;;;5092011;28;20028;-60
2022/02/26 08:50:08;;;;;;;11.40;9.43;;;6.20;76.70;;;;;;5078253;28;20086;-60
2022/02/26 08:52:34;;;;;;;12.13;9.35;;;6.20;76.70;;;;;;5091136;28;20420;-60
2022/02/26 08:55:00;;;;;;;12.00;9.75;;;6.20;76.70;;;;;;5091601;28;20071;-60
2022/02/26 08:57:26;;;;;;;11.85;9.82;;;6.20;76.60;;;;;;5088683;28;20455;-60
2022/02/26 08:59:51;;;;;;;10.65;9.02;;;6.20;76.60;;;;;;5092539;28;20478;-60
2022/02/26 09:02:17;;;;;;;10.27;8.88;;;6.20;76.50;;;;;;5092267;28;20032;-60
2022/02/26 09:04:43;;;;;;;11.48;9.60;;;6.20;76.50;;;;;;5091431;28;20028;-60
2022/02/26 09:07:08;;;;;;;11.82;10.23;;;6.20;76.50;;;;;;5074484;28;20025;-60
2022/02/26 09:09:34;;;;;;;11.13;9.93;;;6.20;76.50;;;;;;5072056;28;20104;-60
2022/02/26 09:12:00;;;;;;;12.00;9.85;;;6.20;76.50;;;;;;5079942;28;20032;-60
2022/02/26 09:14:27;;;;;;;12.23;9.25;;;6.20;76.50;;;;;;5085068;28;20028;-60
2022/02/26 09:16:53;;;;;;;11.45;8.88;;;6.30;76.50;;;;;;5071804;28;20020;-60
2022/02/26 09:19:18;;;;;;;12.55;9.60;;;6.30;76.60;;;;;;5071841;28;20035;-60
2022/02/26 09:21:44;;;;;;;11.13;9.57;;;6.30;76.60;;;;;;5072212;28;20020;-60
2022/02/26 09:24:10;;;;;;;11.00;8.80;;;6.30;76.60;;;;;;5079203;28;20028;-63
2022/02/26 09:26:35;;;;;;;11.77;9.32;;;6.30;76.60;;;;;;5086931;28;20059;-60
2022/02/26 09:29:01;;;;;;;11.52;9.20;;;6.40;76.60;;;;;;5079507;28;20033;-61
2022/02/26 09:31:27;;;;;;;11.00;9.32;;;6.40;76.40;;;;;;5076663;28;20050;-61
2022/02/26 09:33:53;;;;;;;10.73;9.10;;;6.40;76.50;;;;;;5085950;28;20452;-61
2022/02/26 09:36:18;;;;;;;11.40;9.07;;;6.40;76.30;;;;;;5080644;28;20040;-61
2022/02/26 09:38:44;;;;;;;12.13;8.45;;;6.40;76.30;;;;;;5075598;28;20056;-61
2022/02/26 09:41:10;;;;;;;11.65;9.88;;;6.40;76.30;;;;;;5077022;28;20039;-61
2022/02/26 09:43:37;;;;;;;11.68;9.25;;;6.40;76.30;;;;;;5087879;28;20036;-61
2022/02/26 09:46:04;;;;;;;10.55;8.82;;;6.40;76.20;;;;;;5075285;28;20043;-62
2022/02/26 09:48:31;;;;;;;11.50;8.95;;;6.40;76.20;;;;;;5083598;28;20025;-61
2022/02/26 09:50:57;;;;;;;10.63;8.88;;;6.30;76.20;;;;;;5075154;28;20029;-61
2022/02/26 09:53:23;;;;;;;10.30;8.75;;;6.30;76.20;;;;;;5087883;28;20028;-61
2022/02/26 09:55:51;;;;;;;14.23;9.15;;;6.30;76.40;;;;;;5087470;28;20031;-61
2022/02/26 09:58:17;;;;;;;10.90;8.88;;;6.30;76.40;;;;;;5080284;28;20020;-61
2022/02/26 10:00:44;;;;;;;12.10;10.23;;;6.30;76.50;;;;;;5076668;28;20047;-61
2022/02/26 10:03:31;;;;;;;11.48;9.15;;;6.30;76.50;;;;;;5075140;28;20032;-61
2022/02/26 10:06:11;;;;;;;13.20;10.13;;;6.30;76.50;;;;;;5075024;28;20029;-61
2022/02/26 10:08:47;;;;;;;11.85;9.27;;;6.30;76.50;;;;;;5075213;28;20107;-61
2022/02/26 10:11:26;;;;;;;11.10;9.50;;;6.30;76.50;;;;;;5076828;28;20071;-61
2022/02/26 10:14:18;;;;;;;9.73;8.18;;;6.30;76.60;;;;;;5094917;28;20032;-60
2022/02/26 10:16:53;;;;;;;11.27;9.57;;;6.30;76.30;;;;;;5072607;28;20039;-61
2022/02/26 10:19:28;;;;;;;9.48;7.75;;;6.30;76.40;;;;;;5093349;28;20430;-61
2022/02/26 10:21:59;;;;;;;9.75;7.80;;;6.30;76.30;;;;;;5080071;28;20444;-61
2022/02/26 10:24:27;;;;;;;9.38;7.53;;;6.30;76.30;;;;;;5091095;28;20023;-61
2022/02/26 10:26:55;;;;;;;9.10;7.35;;;6.30;76.00;;;;;;5092047;28;20107;-61
2022/02/26 10:29:22;;;;;;;9.82;7.35;;;6.30;76.10;;;;;;5088036;28;20032;-61
2022/02/26 10:31:56;;;;;;;8.57;7.07;;;6.30;76.00;;;;;;5089242;28;20020;-61
2022/02/26 10:34:24;;;;;;;9.55;8.18;;;6.30;76.00;;;;;;5090494;28;20057;-61
2022/02/26 10:37:11;;;;;;;11.38;8.43;;;6.30;76.10;;;;;;5086668;28;20038;-61
2022/02/26 10:39:43;;;;;;;10.13;7.28;;;6.30;76.10;;;;;;5087101;28;20016;-61
2022/02/26 10:42:17;;;;;;;10.00;8.05;;;6.40;76.10;;;;;;5088403;28;20036;-61
2022/02/26 10:44:42;;;;;;;9.32;7.43;;;6.40;76.20;;;;;;5088536;28;20107;-63
2022/02/26 10:47:13;;;;;;;10.57;7.90;;;6.40;76.10;;;;;;5083325;28;20099;-60
2022/02/26 10:49:44;;;;;;;8.85;7.13;;;6.50;76.00;;;;;;5084779;28;20385;-61
2022/02/26 10:52:12;;;;;;;9.00;7.35;;;6.50;76.00;;;;;;5087721;28;20040;-61
2022/02/26 10:54:41;;;;;;;8.13;7.03;;;6.50;75.90;;;;;;5083917;28;20093;-61
2022/02/26 10:57:11;;;;;;;8.73;7.10;;;6.60;75.90;;;;;;5089034;28;20089;-61
2022/02/26 10:59:42;;;;;;;7.93;6.65;;;6.70;75.70;;;;;;5088973;28;20031;-61
2022/02/26 11:02:22;;;;;;;8.60;7.00;;;6.70;75.70;;;;;;5082422;28;20503;-61
2022/02/26 11:04:48;;;;;;;9.25;7.60;;;6.80;75.70;;;;;;5083176;28;20032;-61
2022/02/26 11:07:15;;;;;;;9.15;6.53;;;6.80;75.50;;;;;;5083461;28;20042;-61
2022/02/26 11:09:43;;;;;;;6.40;5.57;;;6.90;75.30;;;;;;5085107;28;20035;-61
2022/02/26 11:12:14;;;;;;;6.35;5.20;;;6.90;74.90;;;;;;5081906;28;20491;-61
2022/02/26 11:14:45;;;;;;;5.72;4.53;;;7.00;74.50;;;;;;5087674;28;20020;-61
2022/02/26 11:17:13;;;;;;;6.72;4.75;;;6.90;73.80;;;;;;5083185;28;20476;-61
2022/02/26 11:19:40;;;;;;;6.60;4.85;;;7.00;73.70;;;;;;5084754;28;20124;-61
2022/02/26 11:22:06;;;;;;;5.78;4.57;;;6.90;73.60;;;;;;5070333;28;20119;-61
2022/02/26 11:24:32;;;;;;;4.85;4.35;;;6.90;73.40;;;;;;5070344;28;20021;-61
2022/02/26 11:26:58;;;;;;;7.03;4.90;;;6.90;73.50;;;;;;5088601;28;20026;-61
2022/02/26 11:29:25;;;;;;;6.40;4.63;;;6.90;73.60;;;;;;5086084;28;20036;-61
2022/02/26 11:32:07;;;;;;;7.05;5.03;;;6.90;73.70;;;;;;5083788;28;20020;-61
2022/02/26 11:34:34;;;;;;;;;;;6.90;73.70;;;;;;5093127;28;20047;-61
2022/02/26 11:37:05;;;;;;;5.20;4.50;;;6.80;73.50;;;;;;5092606;28;19908;-61
2022/02/26 11:39:41;;;;;;;;;;;6.90;73.80;;;;;;5091981;28;20028;-61
2022/02/26 11:42:19;;;;;;;6.80;4.13;;;6.80;73.60;;;;;;5083943;28;19938;-61
2022/02/26 11:45:06;;;;;;;6.00;4.90;;;6.80;73.50;;;;;;5092252;28;20056;-60
2022/02/26 11:47:41;;;;;;;6.22;4.88;;;6.90;73.50;;;;;;5078225;28;20025;-61
2022/02/26 11:50:08;;;;;;;5.28;4.40;;;6.90;73.30;;;;;;5072700;28;20477;-60
2022/02/26 11:52:46;;;;;;;6.47;4.95;;;6.90;72.90;;;;;;5072758;28;20027;-61
2022/02/26 11:55:36;;;;;;;4.93;4.30;;;6.90;72.60;;;;;;5082633;28;20028;-61
2022/02/26 11:58:13;;;;;;;5.78;4.38;;;6.90;72.40;;;;;;5081764;28;20475;-63
2022/02/26 12:00:51;;;;;;;5.80;4.50;;;6.90;72.50;;;;;;5081126;28;20043;-61
2022/02/26 12:03:17;;;;;;;6.50;4.70;;;7.00;72.80;;;;;;5061951;28;20028;-60
2022/02/26 12:05:43;;;;;;;6.00;4.80;;;7.00;72.80;;;;;;5079786;28;20020;-61
2022/02/26 12:08:09;;;;;;;6.13;5.13;;;7.00;72.80;;;;;;5076936;28;20450;-61
2022/02/26 12:10:35;;;;;;;6.97;4.97;;;7.00;72.90;;;;;;5079770;28;20107;-61
2022/02/26 12:13:01;;;;;;;5.45;4.85;;;7.00;72.70;;;;;;5091243;28;20621;-61
2022/02/26 12:15:33;;;;;;;7.05;4.20;;;7.00;72.60;;;;;;5075667;28;20129;-61
2022/02/26 12:18:12;;;;;;;;;;;7.00;72.30;;;;;;5089269;28;20028;-61
2022/02/26 12:20:39;;;;;;;4.68;3.72;;;7.00;72.10;;;;;;5090144;28;19988;-61
2022/02/26 12:23:22;;;;;;;6.10;4.75;;;7.00;72.40;;;;;;5092426;28;20483;-61
2022/02/26 12:25:48;;;;;;;6.03;4.32;;;7.10;72.30;;;;;;5087763;28;20103;-61
2022/02/26 12:28:16;;;;;;;5.25;4.00;;;7.10;72.60;;;;;;5085868;28;20123;-61
2022/02/26 12:31:09;;;;;;;5.47;4.43;;;7.20;72.40;;;;;;5072953;28;20028;-61
2022/02/26 12:33:48;;;;;;;5.63;4.13;;;7.30;72.00;;;;;;5078633;28;20046;-61
2022/02/26 12:36:20;;;;;;;5.85;4.60;;;7.30;71.70;;;;;;5091952;28;20047;-61
2022/02/26 12:38:49;;;;;;;5.25;4.03;;;7.40;71.80;;;;;;5081251;28;20024;-62
2022/02/26 12:41:32;;;;;;;5.78;4.28;;;7.50;71.90;;;;;;5075518;28;20020;-60
2022/02/26 12:43:59;;;;;;;5.60;4.78;;;7.50;71.80;;;;;;5079881;28;20029;-61
2022/02/26 12:46:29;;;;;;;5.60;4.43;;;7.60;71.70;;;;;;5074854;28;20107;-61